sensor_id;sensor_type;location;lat;lon;timestamp;temperature;humidity
15355;DHT22;7777;52.254;9.618;2023-03-04T00:02:07;4.70;99.90
15355;DHT22;7777;52.254;9.618;2023-03-04T00:04:32;4.60;99.90
15355;DHT22;7777;52.254;9.618;2023-03-04T00:06:58;4.70;99.90
15355;DHT22;7777;52.254;9.618;2023-03-04T00:09:24;4.70;99.90
15355;DHT22;7777;52.254;9.618;2023-03-04T00:11:49;4.70;99.90
15355;DHT22;7777;52.254;9.618;2023-03-04T00:14:15;4.70;99.90
15355;DHT22;7777;52.254;9.618;2023-03-04T00:16:41;4.70;99.90
15355;DHT22;7777;52.254;9.618;2023-03-04T00:19:06;4.70;99.90
15355;DHT22;7777;52.254;9.618;2023-03-04T00:21:32;4.70;99.90
15355;DHT22;7777;52.254;9.618;2023-03-04T00:23:58;4.70;99.90
15355;DHT22;7777;52.254;9.618;2023-03-04T00:26:23;4.70;99.90
15355;DHT22;7777;52.254;9.618;2023-03-04T00:28:49;4.70;99.90
15355;DHT22;7777;52.254;9.618;2023-03-04T00:31:15;4.60;99.90
15355;DHT22;7777;52.254;9.618;2023-03-04T00:33:40;4.70;99.90
15355;DHT22;7777;52.254;9.618;2023-03-04T00:36:09;4.70;99.90
15355;DHT22;7777;52.254;9.618;2023-03-04T00:38:35;4.70;99.90
15355;DHT22;7777;52.254;9.618;2023-03-04T00:41:01;4.70;99.90
15355;DHT22;7777;52.254;9.618;2023-03-04T00:43:27;4.70;99.90
15355;DHT22;7777;52.254;9.618;2023-03-04T00:45:52;4.70;99.90
15355;DHT22;7777;52.254;9.618;2023-03-04T00:48:18;4.80;99.90
15355;DHT22;7777;52.254;9.618;2023-03-04T00:50:44;4.70;99.90
15355;DHT22;7777;52.254;9.618;2023-03-04T00:53:10;4.80;99.90
15355;DHT22;7777;52.254;9.618;2023-03-04T00:55:36;4.80;99.90
15355;DHT22;7777;52.254;9.618;2023-03-04T00:58:02;4.80;99.90
15355;DHT22;7777;52.254;9.618;2023-03-04T01:00:28;4.80;99.90
15355;DHT22;7777;52.254;9.618;2023-03-04T01:02:54;4.80;99.90
15355;DHT22;7777;52.254;9.618;2023-03-04T01:05:20;4.80;99.90
15355;DHT22;7777;52.254;9.618;2023-03-04T01:07:46;4.80;99.90
15355;DHT22;7777;52.254;9.618;2023-03-04T01:10:14;4.80;99.90
15355;DHT22;7777;52.254;9.618;2023-03-04T01:12:40;4.80;99.90
15355;DHT22;7777;52.254;9.618;2023-03-04T01:15:08;4.80;99.90
15355;DHT22;7777;52.254;9.618;2023-03-04T01:17:35;4.80;99.90
15355;DHT22;7777;52.254;9.618;2023-03-04T01:20:01;4.80;99.90
15355;DHT22;7777;52.254;9.618;2023-03-04T01:22:28;4.80;99.90
15355;DHT22;7777;52.254;9.618;2023-03-04T01:24:53;4.80;99.90
15355;DHT22;7777;52.254;9.618;2023-03-04T01:27:19;4.80;99.90
15355;DHT22;7777;52.254;9.618;2023-03-04T01:29:47;4.80;99.90
15355;DHT22;7777;52.254;9.618;2023-03-04T01:32:12;4.80;99.90
15355;DHT22;7777;52.254;9.618;2023-03-04T01:34:38;4.90;99.90
15355;DHT22;7777;52.254;9.618;2023-03-04T01:37:04;4.90;99.90
15355;DHT22;7777;52.254;9.618;2023-03-04T01:39:30;4.90;99.90
15355;DHT22;7777;52.254;9.618;2023-03-04T01:41:56;4.90;99.90
15355;DHT22;7777;52.254;9.618;2023-03-04T01:44:21;4.90;99.90
15355;DHT22;7777;52.254;9.618;2023-03-04T01:46:50;4.90;99.90
15355;DHT22;7777;52.254;9.618;2023-03-04T01:49:18;4.90;99.90
15355;DHT22;7777;52.254;9.618;2023-03-04T01:51:48;4.90;99.90
15355;DHT22;7777;52.254;9.618;2023-03-04T01:54:19;4.90;99.90
15355;DHT22;7777;52.254;9.618;2023-03-04T01:56:48;4.90;99.90
15355;DHT22;7777;52.254;9.618;2023-03-04T02:01:50;5.00;99.90
15355;DHT22;7777;52.254;9.618;2023-03-04T02:04:25;5.00;99.90
15355;DHT22;7777;52.254;9.618;2023-03-04T02:06:54;5.00;99.90
15355;DHT22;7777;52.254;9.618;2023-03-04T02:09:21;5.00;99.90
15355;DHT22;7777;52.254;9.618;2023-03-04T02:11:48;5.00;99.90
15355;DHT22;7777;52.254;9.618;2023-03-04T02:14:16;5.00;99.90
15355;DHT22;7777;52.254;9.618;2023-03-04T02:16:42;5.00;99.90
15355;DHT22;7777;52.254;9.618;2023-03-04T02:19:48;5.00;99.90
15355;DHT22;7777;52.254;9.618;2023-03-04T02:22:16;5.00;99.90
15355;DHT22;7777;52.254;9.618;2023-03-04T02:24:43;5.00;99.90
15355;DHT22;7777;52.254;9.618;2023-03-04T02:27:12;5.00;99.90
15355;DHT22;7777;52.254;9.618;2023-03-04T02:29:37;5.10;99.90
15355;DHT22;7777;52.254;9.618;2023-03-04T02:32:04;5.10;99.90
15355;DHT22;7777;52.254;9.618;2023-03-04T02:34:33;5.10;99.90
15355;DHT22;7777;52.254;9.618;2023-03-04T02:37:00;5.10;99.90
15355;DHT22;7777;52.254;9.618;2023-03-04T02:39:33;5.10;99.90
15355;DHT22;7777;52.254;9.618;2023-03-04T02:42:01;5.10;99.90
15355;DHT22;7777;52.254;9.618;2023-03-04T02:44:33;5.20;99.90
15355;DHT22;7777;52.254;9.618;2023-03-04T02:47:01;5.20;99.90
15355;DHT22;7777;52.254;9.618;2023-03-04T02:49:29;5.30;99.90
15355;DHT22;7777;52.254;9.618;2023-03-04T02:52:18;5.20;99.90
15355;DHT22;7777;52.254;9.618;2023-03-04T02:54:45;5.20;99.90
15355;DHT22;7777;52.254;9.618;2023-03-04T02:57:12;5.20;99.90
15355;DHT22;7777;52.254;9.618;2023-03-04T02:59:40;5.20;99.90
15355;DHT22;7777;52.254;9.618;2023-03-04T03:02:07;5.20;99.90
15355;DHT22;7777;52.254;9.618;2023-03-04T03:04:35;5.20;99.90
15355;DHT22;7777;52.254;9.618;2023-03-04T03:07:01;5.20;99.90
15355;DHT22;7777;52.254;9.618;2023-03-04T03:09:27;5.20;99.90
15355;DHT22;7777;52.254;9.618;2023-03-04T03:11:53;5.20;99.90
15355;DHT22;7777;52.254;9.618;2023-03-04T03:14:19;5.30;99.90
15355;DHT22;7777;52.254;9.618;2023-03-04T03:16:45;5.20;99.90
15355;DHT22;7777;52.254;9.618;2023-03-04T03:19:11;5.20;99.90
15355;DHT22;7777;52.254;9.618;2023-03-04T03:21:36;5.20;99.90
15355;DHT22;7777;52.254;9.618;2023-03-04T03:24:02;5.20;99.90
15355;DHT22;7777;52.254;9.618;2023-03-04T03:26:28;5.20;99.90
15355;DHT22;7777;52.254;9.618;2023-03-04T03:28:53;5.20;99.90
15355;DHT22;7777;52.254;9.618;2023-03-04T03:31:19;5.20;99.90
15355;DHT22;7777;52.254;9.618;2023-03-04T03:33:45;5.30;99.90
15355;DHT22;7777;52.254;9.618;2023-03-04T03:36:10;5.30;99.90
15355;DHT22;7777;52.254;9.618;2023-03-04T03:38:36;5.30;99.90
15355;DHT22;7777;52.254;9.618;2023-03-04T03:41:02;5.30;99.90
15355;DHT22;7777;52.254;9.618;2023-03-04T03:43:28;5.30;99.90
15355;DHT22;7777;52.254;9.618;2023-03-04T03:45:54;5.30;99.90
15355;DHT22;7777;52.254;9.618;2023-03-04T03:48:19;5.30;99.90
15355;DHT22;7777;52.254;9.618;2023-03-04T03:50:45;5.30;99.90
15355;DHT22;7777;52.254;9.618;2023-03-04T03:53:11;5.30;99.90
15355;DHT22;7777;52.254;9.618;2023-03-04T03:55:36;5.30;99.90
15355;DHT22;7777;52.254;9.618;2023-03-04T03:58:03;5.30;99.90
15355;DHT22;7777;52.254;9.618;2023-03-04T04:00:29;5.30;99.90
15355;DHT22;7777;52.254;9.618;2023-03-04T04:02:57;5.30;99.90
15355;DHT22;7777;52.254;9.618;2023-03-04T04:05:22;5.30;99.90
15355;DHT22;7777;52.254;9.618;2023-03-04T04:07:48;5.30;99.90
15355;DHT22;7777;52.254;9.618;2023-03-04T04:10:14;5.30;99.90
15355;DHT22;7777;52.254;9.618;2023-03-04T04:12:40;5.30;99.90
15355;DHT22;7777;52.254;9.618;2023-03-04T04:15:06;5.30;99.90
15355;DHT22;7777;52.254;9.618;2023-03-04T04:17:32;5.30;99.90
15355;DHT22;7777;52.254;9.618;2023-03-04T04:19:58;5.30;99.90
15355;DHT22;7777;52.254;9.618;2023-03-04T04:22:24;5.30;99.90
15355;DHT22;7777;52.254;9.618;2023-03-04T04:24:49;5.30;99.90
15355;DHT22;7777;52.254;9.618;2023-03-04T04:27:15;5.30;99.90
15355;DHT22;7777;52.254;9.618;2023-03-04T04:29:41;5.30;99.90
15355;DHT22;7777;52.254;9.618;2023-03-04T04:32:07;5.30;99.90
15355;DHT22;7777;52.254;9.618;2023-03-04T04:34:33;5.30;99.90
15355;DHT22;7777;52.254;9.618;2023-03-04T04:36:59;5.30;99.90
15355;DHT22;7777;52.254;9.618;2023-03-04T04:39:25;5.30;99.90
15355;DHT22;7777;52.254;9.618;2023-03-04T04:41:50;5.30;99.90
15355;DHT22;7777;52.254;9.618;2023-03-04T04:44:16;5.30;99.90
15355;DHT22;7777;52.254;9.618;2023-03-04T04:46:42;5.30;99.90
15355;DHT22;7777;52.254;9.618;2023-03-04T04:49:08;5.30;99.90
15355;DHT22;7777;52.254;9.618;2023-03-04T04:51:35;5.30;99.90
15355;DHT22;7777;52.254;9.618;2023-03-04T04:54:02;5.30;99.90
15355;DHT22;7777;52.254;9.618;2023-03-04T04:56:29;5.30;99.90
15355;DHT22;7777;52.254;9.618;2023-03-04T04:58:57;5.20;99.90
15355;DHT22;7777;52.254;9.618;2023-03-04T05:01:24;5.30;99.90
15355;DHT22;7777;52.254;9.618;2023-03-04T05:03:50;5.20;99.90
15355;DHT22;7777;52.254;9.618;2023-03-04T05:06:20;5.20;99.90
15355;DHT22;7777;52.254;9.618;2023-03-04T05:08:47;5.30;99.90
15355;DHT22;7777;52.254;9.618;2023-03-04T05:11:14;5.20;99.90
15355;DHT22;7777;52.254;9.618;2023-03-04T05:13:40;5.20;99.90
15355;DHT22;7777;52.254;9.618;2023-03-04T05:16:06;5.30;99.90
15355;DHT22;7777;52.254;9.618;2023-03-04T05:18:32;5.20;99.90
15355;DHT22;7777;52.254;9.618;2023-03-04T05:21:00;5.20;99.90
15355;DHT22;7777;52.254;9.618;2023-03-04T05:23:29;5.30;99.90
15355;DHT22;7777;52.254;9.618;2023-03-04T05:25:56;5.20;99.90
15355;DHT22;7777;52.254;9.618;2023-03-04T05:28:22;5.30;99.90
15355;DHT22;7777;52.254;9.618;2023-03-04T05:30:48;5.20;99.90
15355;DHT22;7777;52.254;9.618;2023-03-04T05:33:15;5.30;99.90
15355;DHT22;7777;52.254;9.618;2023-03-04T05:35:43;5.20;99.90
15355;DHT22;7777;52.254;9.618;2023-03-04T05:38:12;5.20;99.90
15355;DHT22;7777;52.254;9.618;2023-03-04T05:40:39;5.20;99.90
15355;DHT22;7777;52.254;9.618;2023-03-04T05:43:05;5.20;99.90
15355;DHT22;7777;52.254;9.618;2023-03-04T05:45:31;5.20;99.90
15355;DHT22;7777;52.254;9.618;2023-03-04T05:47:57;5.20;99.90
15355;DHT22;7777;52.254;9.618;2023-03-04T05:50:23;5.20;99.90
15355;DHT22;7777;52.254;9.618;2023-03-04T05:52:49;5.20;99.90
15355;DHT22;7777;52.254;9.618;2023-03-04T05:55:16;5.20;99.90
15355;DHT22;7777;52.254;9.618;2023-03-04T05:57:42;5.20;99.90
15355;DHT22;7777;52.254;9.618;2023-03-04T06:00:10;5.20;99.90
15355;DHT22;7777;52.254;9.618;2023-03-04T06:02:44;5.20;99.90
15355;DHT22;7777;52.254;9.618;2023-03-04T06:05:12;5.20;99.90
15355;DHT22;7777;52.254;9.618;2023-03-04T06:07:38;5.20;99.90
15355;DHT22;7777;52.254;9.618;2023-03-04T06:10:05;5.20;99.90
15355;DHT22;7777;52.254;9.618;2023-03-04T06:12:31;5.20;99.90
15355;DHT22;7777;52.254;9.618;2023-03-04T06:14:57;5.20;99.90
15355;DHT22;7777;52.254;9.618;2023-03-04T06:17:23;5.20;99.90
15355;DHT22;7777;52.254;9.618;2023-03-04T06:19:49;5.20;99.90
15355;DHT22;7777;52.254;9.618;2023-03-04T06:22:15;5.20;99.90
15355;DHT22;7777;52.254;9.618;2023-03-04T06:24:40;5.20;99.90
15355;DHT22;7777;52.254;9.618;2023-03-04T06:27:06;5.20;99.90
15355;DHT22;7777;52.254;9.618;2023-03-04T06:29:32;5.20;99.90
15355;DHT22;7777;52.254;9.618;2023-03-04T06:31:58;5.20;99.90
15355;DHT22;7777;52.254;9.618;2023-03-04T06:34:23;5.20;99.90
15355;DHT22;7777;52.254;9.618;2023-03-04T06:36:49;5.20;99.90
15355;DHT22;7777;52.254;9.618;2023-03-04T06:39:15;5.20;99.90
15355;DHT22;7777;52.254;9.618;2023-03-04T06:41:41;5.20;99.90
15355;DHT22;7777;52.254;9.618;2023-03-04T06:44:07;5.20;99.90
15355;DHT22;7777;52.254;9.618;2023-03-04T06:46:33;5.20;99.90
15355;DHT22;7777;52.254;9.618;2023-03-04T06:48:59;5.20;99.90
15355;DHT22;7777;52.254;9.618;2023-03-04T06:51:25;5.20;99.90
15355;DHT22;7777;52.254;9.618;2023-03-04T06:53:50;5.20;99.90
15355;DHT22;7777;52.254;9.618;2023-03-04T06:56:16;5.30;99.90
15355;DHT22;7777;52.254;9.618;2023-03-04T06:58:43;5.30;99.90
15355;DHT22;7777;52.254;9.618;2023-03-04T07:01:20;5.30;99.90
15355;DHT22;7777;52.254;9.618;2023-03-04T07:03:49;5.30;99.90
15355;DHT22;7777;52.254;9.618;2023-03-04T07:06:17;5.40;99.90
15355;DHT22;7777;52.254;9.618;2023-03-04T07:08:44;5.40;99.90
15355;DHT22;7777;52.254;9.618;2023-03-04T07:11:11;5.40;99.90
15355;DHT22;7777;52.254;9.618;2023-03-04T07:13:37;5.40;99.90
15355;DHT22;7777;52.254;9.618;2023-03-04T07:16:05;5.40;99.90
15355;DHT22;7777;52.254;9.618;2023-03-04T07:18:31;5.50;99.90
15355;DHT22;7777;52.254;9.618;2023-03-04T07:20:57;5.50;99.90
15355;DHT22;7777;52.254;9.618;2023-03-04T07:23:22;5.50;99.90
15355;DHT22;7777;52.254;9.618;2023-03-04T07:25:49;5.50;99.90
15355;DHT22;7777;52.254;9.618;2023-03-04T07:28:16;5.50;99.90
15355;DHT22;7777;52.254;9.618;2023-03-04T07:30:42;5.50;99.90
15355;DHT22;7777;52.254;9.618;2023-03-04T07:33:07;5.50;99.90
15355;DHT22;7777;52.254;9.618;2023-03-04T07:35:33;5.50;99.90
15355;DHT22;7777;52.254;9.618;2023-03-04T07:37:59;5.60;99.90
15355;DHT22;7777;52.254;9.618;2023-03-04T07:40:25;5.60;99.90
15355;DHT22;7777;52.254;9.618;2023-03-04T07:42:52;5.60;99.90
15355;DHT22;7777;52.254;9.618;2023-03-04T07:45:19;5.60;99.90
15355;DHT22;7777;52.254;9.618;2023-03-04T07:47:45;5.70;99.90
15355;DHT22;7777;52.254;9.618;2023-03-04T07:50:11;5.80;99.90
15355;DHT22;7777;52.254;9.618;2023-03-04T07:52:38;5.70;99.90
15355;DHT22;7777;52.254;9.618;2023-03-04T07:55:05;5.80;99.90
15355;DHT22;7777;52.254;9.618;2023-03-04T07:57:31;5.80;99.90
15355;DHT22;7777;52.254;9.618;2023-03-04T07:59:57;5.80;99.90
15355;DHT22;7777;52.254;9.618;2023-03-04T08:02:23;5.80;99.90
15355;DHT22;7777;52.254;9.618;2023-03-04T08:04:48;5.80;99.90
15355;DHT22;7777;52.254;9.618;2023-03-04T08:07:14;5.80;99.90
15355;DHT22;7777;52.254;9.618;2023-03-04T08:09:40;5.90;99.90
15355;DHT22;7777;52.254;9.618;2023-03-04T08:12:05;5.90;99.90
15355;DHT22;7777;52.254;9.618;2023-03-04T08:14:31;5.90;99.90
15355;DHT22;7777;52.254;9.618;2023-03-04T08:16:58;5.90;99.90
15355;DHT22;7777;52.254;9.618;2023-03-04T08:19:23;5.90;99.90
15355;DHT22;7777;52.254;9.618;2023-03-04T08:21:50;5.90;99.90
15355;DHT22;7777;52.254;9.618;2023-03-04T08:24:15;5.90;99.90
15355;DHT22;7777;52.254;9.618;2023-03-04T08:26:43;6.00;99.90
15355;DHT22;7777;52.254;9.618;2023-03-04T08:29:20;6.00;99.90
15355;DHT22;7777;52.254;9.618;2023-03-04T08:31:48;6.00;99.90
15355;DHT22;7777;52.254;9.618;2023-03-04T08:34:15;6.00;99.90
15355;DHT22;7777;52.254;9.618;2023-03-04T08:37:00;6.00;99.90
15355;DHT22;7777;52.254;9.618;2023-03-04T08:39:26;6.00;99.90
15355;DHT22;7777;52.254;9.618;2023-03-04T08:41:52;6.10;99.90
15355;DHT22;7777;52.254;9.618;2023-03-04T08:44:17;6.10;99.90
15355;DHT22;7777;52.254;9.618;2023-03-04T08:46:43;6.10;99.90
15355;DHT22;7777;52.254;9.618;2023-03-04T08:49:12;6.10;99.90
15355;DHT22;7777;52.254;9.618;2023-03-04T08:51:39;6.20;99.90
15355;DHT22;7777;52.254;9.618;2023-03-04T08:54:05;6.20;99.90
15355;DHT22;7777;52.254;9.618;2023-03-04T08:56:31;6.30;99.90
15355;DHT22;7777;52.254;9.618;2023-03-04T08:58:57;6.20;99.90
15355;DHT22;7777;52.254;9.618;2023-03-04T09:01:23;6.30;99.90
15355;DHT22;7777;52.254;9.618;2023-03-04T09:03:49;6.30;99.90
15355;DHT22;7777;52.254;9.618;2023-03-04T09:06:16;6.30;99.90
15355;DHT22;7777;52.254;9.618;2023-03-04T09:08:42;6.40;99.90
15355;DHT22;7777;52.254;9.618;2023-03-04T09:11:08;6.40;99.90
15355;DHT22;7777;52.254;9.618;2023-03-04T09:13:35;6.40;99.90
15355;DHT22;7777;52.254;9.618;2023-03-04T09:16:01;6.40;99.90
15355;DHT22;7777;52.254;9.618;2023-03-04T09:18:27;6.50;99.90
15355;DHT22;7777;52.254;9.618;2023-03-04T09:20:54;6.50;99.90
15355;DHT22;7777;52.254;9.618;2023-03-04T09:23:20;6.50;99.90
15355;DHT22;7777;52.254;9.618;2023-03-04T09:25:46;6.50;99.90
15355;DHT22;7777;52.254;9.618;2023-03-04T09:28:14;6.60;99.90
15355;DHT22;7777;52.254;9.618;2023-03-04T09:30:41;6.60;99.90
15355;DHT22;7777;52.254;9.618;2023-03-04T09:33:07;6.60;99.90
15355;DHT22;7777;52.254;9.618;2023-03-04T09:35:33;6.60;99.90
15355;DHT22;7777;52.254;9.618;2023-03-04T09:37:59;6.60;99.90
15355;DHT22;7777;52.254;9.618;2023-03-04T09:40:29;6.60;99.90
15355;DHT22;7777;52.254;9.618;2023-03-04T09:43:00;6.60;99.90
15355;DHT22;7777;52.254;9.618;2023-03-04T09:45:38;6.50;99.90
15355;DHT22;7777;52.254;9.618;2023-03-04T09:48:08;6.50;99.90
15355;DHT22;7777;52.254;9.618;2023-03-04T09:50:38;6.50;99.90
15355;DHT22;7777;52.254;9.618;2023-03-04T09:53:34;6.50;99.90
15355;DHT22;7777;52.254;9.618;2023-03-04T09:56:05;6.50;99.90
15355;DHT22;7777;52.254;9.618;2023-03-04T10:01:35;6.50;99.90
15355;DHT22;7777;52.254;9.618;2023-03-04T10:07:12;6.60;99.90
15355;DHT22;7777;52.254;9.618;2023-03-04T10:09:50;6.60;99.90
15355;DHT22;7777;52.254;9.618;2023-03-04T10:12:22;6.70;99.90
15355;DHT22;7777;52.254;9.618;2023-03-04T10:15:26;6.70;99.90
15355;DHT22;7777;52.254;9.618;2023-03-04T10:18:21;6.80;99.90
15355;DHT22;7777;52.254;9.618;2023-03-04T10:20:56;6.80;99.90
15355;DHT22;7777;52.254;9.618;2023-03-04T10:23:28;6.80;99.90
15355;DHT22;7777;52.254;9.618;2023-03-04T10:25:54;6.80;99.90
15355;DHT22;7777;52.254;9.618;2023-03-04T10:28:30;6.80;99.90
15355;DHT22;7777;52.254;9.618;2023-03-04T10:31:14;6.80;99.90
15355;DHT22;7777;52.254;9.618;2023-03-04T10:33:43;6.90;99.90
15355;DHT22;7777;52.254;9.618;2023-03-04T10:38:57;6.90;99.90
15355;DHT22;7777;52.254;9.618;2023-03-04T10:41:28;6.90;99.90
15355;DHT22;7777;52.254;9.618;2023-03-04T10:46:37;6.90;99.90
15355;DHT22;7777;52.254;9.618;2023-03-04T10:49:04;6.90;99.90
15355;DHT22;7777;52.254;9.618;2023-03-04T10:51:30;7.00;99.90
15355;DHT22;7777;52.254;9.618;2023-03-04T10:54:30;7.00;99.90
15355;DHT22;7777;52.254;9.618;2023-03-04T10:57:19;7.00;99.90
15355;DHT22;7777;52.254;9.618;2023-03-04T10:59:58;7.00;99.90
15355;DHT22;7777;52.254;9.618;2023-03-04T11:02:35;7.00;99.90
15355;DHT22;7777;52.254;9.618;2023-03-04T11:05:27;7.00;99.90
15355;DHT22;7777;52.254;9.618;2023-03-04T11:07:59;6.90;99.90
15355;DHT22;7777;52.254;9.618;2023-03-04T11:13:18;6.90;99.90
15355;DHT22;7777;52.254;9.618;2023-03-04T11:15:58;7.00;99.90
15355;DHT22;7777;52.254;9.618;2023-03-04T11:18:47;7.00;99.90
15355;DHT22;7777;52.254;9.618;2023-03-04T11:21:22;7.00;99.90
15355;DHT22;7777;52.254;9.618;2023-03-04T11:24:05;7.00;99.90
15355;DHT22;7777;52.254;9.618;2023-03-04T11:26:44;7.00;99.90
15355;DHT22;7777;52.254;9.618;2023-03-04T11:29:23;7.10;99.90
15355;DHT22;7777;52.254;9.618;2023-03-04T11:31:57;7.10;99.90
15355;DHT22;7777;52.254;9.618;2023-03-04T11:34:50;7.20;99.90
15355;DHT22;7777;52.254;9.618;2023-03-04T11:37:33;7.20;99.90
15355;DHT22;7777;52.254;9.618;2023-03-04T11:40:12;7.20;99.90
15355;DHT22;7777;52.254;9.618;2023-03-04T11:42:49;7.20;99.90
15355;DHT22;7777;52.254;9.618;2023-03-04T11:45:40;7.10;99.90
15355;DHT22;7777;52.254;9.618;2023-03-04T11:48:36;7.20;99.90
15355;DHT22;7777;52.254;9.618;2023-03-04T11:51:23;7.10;99.90
15355;DHT22;7777;52.254;9.618;2023-03-04T11:57:17;7.00;99.90
15355;DHT22;7777;52.254;9.618;2023-03-04T12:03:06;7.00;99.90
15355;DHT22;7777;52.254;9.618;2023-03-04T12:05:50;7.00;99.90
15355;DHT22;7777;52.254;9.618;2023-03-04T12:20:40;7.20;99.90
15355;DHT22;7777;52.254;9.618;2023-03-04T12:23:38;7.20;99.90
15355;DHT22;7777;52.254;9.618;2023-03-04T12:26:55;7.30;99.90
15355;DHT22;7777;52.254;9.618;2023-03-04T12:44:12;7.20;99.90
15355;DHT22;7777;52.254;9.618;2023-03-04T12:49:48;7.10;99.90
15355;DHT22;7777;52.254;9.618;2023-03-04T12:55:33;7.10;99.90
15355;DHT22;7777;52.254;9.618;2023-03-04T12:58:02;7.10;99.90
15355;DHT22;7777;52.254;9.618;2023-03-04T13:00:50;7.10;99.90
15355;DHT22;7777;52.254;9.618;2023-03-04T13:03:43;7.10;99.90
15355;DHT22;7777;52.254;9.618;2023-03-04T13:11:50;7.20;99.90
15355;DHT22;7777;52.254;9.618;2023-03-04T13:14:22;7.20;99.90
15355;DHT22;7777;52.254;9.618;2023-03-04T13:17:41;7.20;99.90
15355;DHT22;7777;52.254;9.618;2023-03-04T13:20:17;7.30;99.90
15355;DHT22;7777;52.254;9.618;2023-03-04T13:23:24;7.30;99.90
15355;DHT22;7777;52.254;9.618;2023-03-04T13:28:26;7.30;99.90
15355;DHT22;7777;52.254;9.618;2023-03-04T13:35:58;7.20;99.90
15355;DHT22;7777;52.254;9.618;2023-03-04T13:41:23;7.20;99.90
15355;DHT22;7777;52.254;9.618;2023-03-04T13:44:00;7.20;99.90
15355;DHT22;7777;52.254;9.618;2023-03-04T13:46:29;7.20;99.90
15355;DHT22;7777;52.254;9.618;2023-03-04T13:49:05;7.10;99.90
15355;DHT22;7777;52.254;9.618;2023-03-04T13:51:41;7.10;99.90
15355;DHT22;7777;52.254;9.618;2023-03-04T13:54:25;7.10;99.90
15355;DHT22;7777;52.254;9.618;2023-03-04T13:59:42;7.00;99.90
15355;DHT22;7777;52.254;9.618;2023-03-04T14:02:10;6.90;99.90
15355;DHT22;7777;52.254;9.618;2023-03-04T14:04:44;6.90;99.90
15355;DHT22;7777;52.254;9.618;2023-03-04T14:07:30;6.90;99.90
15355;DHT22;7777;52.254;9.618;2023-03-04T14:10:19;6.90;99.90
15355;DHT22;7777;52.254;9.618;2023-03-04T14:12:55;6.80;99.90
15355;DHT22;7777;52.254;9.618;2023-03-04T14:15:24;6.80;99.90
15355;DHT22;7777;52.254;9.618;2023-03-04T14:17:56;6.80;99.90
15355;DHT22;7777;52.254;9.618;2023-03-04T14:23:02;6.90;99.90
15355;DHT22;7777;52.254;9.618;2023-03-04T14:25:32;6.80;99.90
15355;DHT22;7777;52.254;9.618;2023-03-04T14:28:19;6.80;99.90
15355;DHT22;7777;52.254;9.618;2023-03-04T14:30:53;6.90;99.90
15355;DHT22;7777;52.254;9.618;2023-03-04T14:33:25;6.90;99.90
15355;DHT22;7777;52.254;9.618;2023-03-04T14:35:56;6.90;99.90
15355;DHT22;7777;52.254;9.618;2023-03-04T14:38:27;7.00;99.90
15355;DHT22;7777;52.254;9.618;2023-03-04T14:41:07;7.00;99.90
15355;DHT22;7777;52.254;9.618;2023-03-04T14:43:41;7.00;99.90
15355;DHT22;7777;52.254;9.618;2023-03-04T14:46:16;7.00;99.90
15355;DHT22;7777;52.254;9.618;2023-03-04T14:48:51;7.00;99.90
15355;DHT22;7777;52.254;9.618;2023-03-04T14:54:36;6.90;99.90
15355;DHT22;7777;52.254;9.618;2023-03-04T14:59:43;6.90;99.90
15355;DHT22;7777;52.254;9.618;2023-03-04T15:05:18;6.80;99.90
15355;DHT22;7777;52.254;9.618;2023-03-04T15:07:51;6.80;99.90
15355;DHT22;7777;52.254;9.618;2023-03-04T15:10:22;6.70;99.90
15355;DHT22;7777;52.254;9.618;2023-03-04T15:12:51;6.70;99.90
15355;DHT22;7777;52.254;9.618;2023-03-04T15:15:43;6.70;99.90
15355;DHT22;7777;52.254;9.618;2023-03-04T15:18:27;6.60;99.90
15355;DHT22;7777;52.254;9.618;2023-03-04T15:23:52;6.60;99.90
15355;DHT22;7777;52.254;9.618;2023-03-04T15:26:17;6.60;99.90
15355;DHT22;7777;52.254;9.618;2023-03-04T15:28:43;6.60;99.90
15355;DHT22;7777;52.254;9.618;2023-03-04T15:31:17;6.50;99.90
15355;DHT22;7777;52.254;9.618;2023-03-04T15:33:45;6.40;99.90
15355;DHT22;7777;52.254;9.618;2023-03-04T15:36:15;6.50;99.90
15355;DHT22;7777;52.254;9.618;2023-03-04T15:38:47;6.40;99.90
15355;DHT22;7777;52.254;9.618;2023-03-04T15:41:25;6.40;99.90
15355;DHT22;7777;52.254;9.618;2023-03-04T15:43:52;6.40;99.90
15355;DHT22;7777;52.254;9.618;2023-03-04T15:46:19;6.40;99.90
15355;DHT22;7777;52.254;9.618;2023-03-04T15:48:46;6.40;99.90
15355;DHT22;7777;52.254;9.618;2023-03-04T15:51:18;6.30;99.90
15355;DHT22;7777;52.254;9.618;2023-03-04T15:53:54;6.20;99.90
15355;DHT22;7777;52.254;9.618;2023-03-04T15:56:23;6.20;99.90
15355;DHT22;7777;52.254;9.618;2023-03-04T15:58:56;6.20;99.90
15355;DHT22;7777;52.254;9.618;2023-03-04T16:01:24;6.10;99.90
15355;DHT22;7777;52.254;9.618;2023-03-04T16:03:51;6.10;99.90
15355;DHT22;7777;52.254;9.618;2023-03-04T16:06:18;6.10;99.90
15355;DHT22;7777;52.254;9.618;2023-03-04T16:08:45;6.00;99.90
15355;DHT22;7777;52.254;9.618;2023-03-04T16:11:20;6.00;99.90
15355;DHT22;7777;52.254;9.618;2023-03-04T16:13:47;6.00;99.90
15355;DHT22;7777;52.254;9.618;2023-03-04T16:16:14;5.90;99.90
15355;DHT22;7777;52.254;9.618;2023-03-04T16:18:40;5.90;99.90
15355;DHT22;7777;52.254;9.618;2023-03-04T16:21:10;5.90;99.90
15355;DHT22;7777;52.254;9.618;2023-03-04T16:23:40;5.80;99.90
15355;DHT22;7777;52.254;9.618;2023-03-04T16:26:13;5.80;99.90
15355;DHT22;7777;52.254;9.618;2023-03-04T16:28:40;5.80;99.90
15355;DHT22;7777;52.254;9.618;2023-03-04T16:31:06;5.80;99.90
15355;DHT22;7777;52.254;9.618;2023-03-04T16:33:33;5.80;99.90
15355;DHT22;7777;52.254;9.618;2023-03-04T16:35:59;5.80;99.90
15355;DHT22;7777;52.254;9.618;2023-03-04T16:38:27;5.80;99.90
15355;DHT22;7777;52.254;9.618;2023-03-04T16:40:55;5.70;99.90
15355;DHT22;7777;52.254;9.618;2023-03-04T16:43:22;5.70;99.90
15355;DHT22;7777;52.254;9.618;2023-03-04T16:45:48;5.70;99.90
15355;DHT22;7777;52.254;9.618;2023-03-04T16:48:15;5.60;99.90
15355;DHT22;7777;52.254;9.618;2023-03-04T16:50:41;5.60;99.90
15355;DHT22;7777;52.254;9.618;2023-03-04T16:53:24;5.60;99.90
15355;DHT22;7777;52.254;9.618;2023-03-04T16:55:53;5.60;99.90
15355;DHT22;7777;52.254;9.618;2023-03-04T16:58:19;5.60;99.90
15355;DHT22;7777;52.254;9.618;2023-03-04T17:00:45;5.60;99.90
15355;DHT22;7777;52.254;9.618;2023-03-04T17:03:10;5.60;99.90
15355;DHT22;7777;52.254;9.618;2023-03-04T17:05:36;5.50;99.90
15355;DHT22;7777;52.254;9.618;2023-03-04T17:08:02;5.60;99.90
15355;DHT22;7777;52.254;9.618;2023-03-04T17:10:28;5.60;99.90
15355;DHT22;7777;52.254;9.618;2023-03-04T17:12:53;5.60;99.90
15355;DHT22;7777;52.254;9.618;2023-03-04T17:15:19;5.50;99.90
15355;DHT22;7777;52.254;9.618;2023-03-04T17:17:45;5.50;99.90
15355;DHT22;7777;52.254;9.618;2023-03-04T17:20:14;5.40;99.90
15355;DHT22;7777;52.254;9.618;2023-03-04T17:22:42;5.40;99.90
15355;DHT22;7777;52.254;9.618;2023-03-04T17:25:09;5.40;99.90
15355;DHT22;7777;52.254;9.618;2023-03-04T17:27:35;5.40;99.90
15355;DHT22;7777;52.254;9.618;2023-03-04T17:30:02;5.40;99.90
15355;DHT22;7777;52.254;9.618;2023-03-04T17:32:28;5.40;99.90
15355;DHT22;7777;52.254;9.618;2023-03-04T17:34:57;5.40;99.90
15355;DHT22;7777;52.254;9.618;2023-03-04T17:37:23;5.40;99.90
15355;DHT22;7777;52.254;9.618;2023-03-04T17:39:50;5.30;99.90
15355;DHT22;7777;52.254;9.618;2023-03-04T17:42:16;5.40;99.90
15355;DHT22;7777;52.254;9.618;2023-03-04T17:44:42;5.30;99.90
15355;DHT22;7777;52.254;9.618;2023-03-04T17:47:09;5.30;99.90
15355;DHT22;7777;52.254;9.618;2023-03-04T17:49:36;5.20;99.90